createdAt,value
2023-03-29T00:00:42.297Z,650.00
2023-03-29T00:01:42.274Z,651.00
2023-03-29T00:02:42.481Z,641.00
2023-03-29T00:03:42.488Z,658.00
2023-03-29T00:04:42.464Z,631.00
2023-03-29T00:05:42.344Z,646.00
2023-03-29T00:06:42.369Z,592.00
2023-03-29T00:07:42.400Z,637.00
2023-03-29T00:08:42.501Z,647.00
2023-03-29T00:09:42.520Z,632.00
2023-03-29T00:10:42.605Z,651.00
2023-03-29T00:11:42.580Z,648.00
2023-03-29T00:12:42.620Z,608.00
2023-03-29T00:13:42.625Z,572.00
2023-03-29T00:14:42.667Z,609.00
2023-03-29T00:15:42.686Z,596.00
2023-03-29T00:16:42.722Z,621.00
2023-03-29T00:17:42.777Z,653.00
2023-03-29T00:18:42.757Z,641.00
2023-03-29T00:19:42.778Z,646.00
2023-03-29T00:20:42.801Z,626.00
2023-03-29T00:21:42.811Z,653.00
2023-03-29T00:22:42.852Z,641.00
2023-03-29T00:23:42.854Z,637.00
2023-03-29T00:24:42.876Z,622.00
2023-03-29T00:25:42.918Z,636.00
2023-03-29T00:26:42.959Z,647.00
2023-03-29T00:27:42.954Z,644.00
2023-03-29T00:28:42.985Z,626.00
2023-03-29T00:29:43.024Z,601.00
2023-03-29T00:30:43.023Z,600.00
2023-03-29T00:31:43.157Z,621.00
2023-03-29T00:32:43.191Z,604.00
2023-03-29T00:33:43.122Z,588.00
2023-03-29T00:34:43.127Z,572.00
2023-03-29T00:35:43.170Z,580.00
2023-03-29T00:36:43.188Z,572.00
2023-03-29T00:37:43.214Z,560.00
2023-03-29T00:38:43.236Z,568.00
2023-03-29T00:39:43.253Z,610.00
2023-03-29T00:40:43.306Z,614.00
2023-03-29T00:41:43.297Z,620.00
2023-03-29T00:42:43.314Z,576.00
2023-03-29T00:43:43.372Z,602.00
2023-03-29T00:44:43.363Z,619.00
2023-03-29T00:45:43.382Z,625.00
2023-03-29T00:46:43.482Z,580.00
2023-03-29T00:47:43.498Z,580.00
2023-03-29T00:48:43.487Z,570.00
2023-03-29T00:49:43.522Z,607.00
2023-03-29T00:50:43.522Z,614.00
2023-03-29T00:51:43.548Z,587.00
2023-03-29T00:52:43.609Z,573.00
2023-03-29T00:53:43.619Z,556.00
2023-03-29T00:54:43.627Z,563.00
2023-03-29T00:55:43.669Z,596.00
2023-03-29T00:56:43.717Z,617.00
2023-03-29T00:57:43.719Z,616.00
2023-03-29T00:58:43.729Z,619.00
2023-03-29T00:59:43.753Z,593.00
2023-03-29T01:00:43.775Z,613.00
2023-03-29T01:01:43.843Z,635.00
2023-03-29T01:02:43.979Z,624.00
2023-03-29T01:03:43.983Z,639.00
2023-03-29T01:04:43.892Z,617.00
2023-03-29T01:05:43.928Z,604.00
2023-03-29T01:06:44.023Z,616.00
2023-03-29T01:07:43.975Z,629.00
2023-03-29T01:08:44.012Z,602.00
2023-03-29T01:09:44.014Z,602.00
2023-03-29T01:10:44.068Z,611.00
2023-03-29T01:11:44.078Z,608.00
2023-03-29T01:12:44.128Z,614.00
2023-03-29T01:13:44.129Z,620.00
2023-03-29T01:14:44.180Z,623.00
2023-03-29T01:15:44.187Z,607.00
2023-03-29T01:16:44.220Z,585.00
2023-03-29T01:17:44.247Z,574.00
2023-03-29T01:18:44.272Z,607.00
2023-03-29T01:19:44.274Z,607.00
2023-03-29T01:20:44.332Z,608.00
2023-03-29T01:21:44.339Z,612.00
2023-03-29T01:22:44.371Z,597.00
2023-03-29T01:23:44.380Z,612.00
2023-03-29T01:24:44.405Z,604.00
2023-03-29T01:25:44.445Z,622.00
2023-03-29T01:26:44.474Z,606.00
2023-03-29T01:27:44.534Z,609.00
2023-03-29T01:28:44.548Z,608.00
2023-03-29T01:29:44.536Z,612.00
2023-03-29T01:30:44.573Z,631.00
2023-03-29T01:31:44.601Z,600.00
2023-03-29T01:32:44.703Z,594.00
2023-03-29T01:33:44.646Z,612.00
2023-03-29T01:34:44.653Z,622.00
2023-03-29T01:35:44.718Z,632.00
2023-03-29T01:36:44.705Z,588.00
2023-03-29T01:37:44.717Z,579.00
2023-03-29T01:38:44.755Z,581.00
2023-03-29T01:39:44.784Z,558.00
2023-03-29T01:40:44.803Z,604.00
2023-03-29T01:41:44.815Z,593.00
2023-03-29T01:42:44.850Z,570.00
2023-03-29T01:43:44.890Z,602.00
2023-03-29T01:44:44.909Z,610.00
2023-03-29T01:45:44.954Z,573.00
2023-03-29T01:46:44.936Z,548.00
2023-03-29T01:47:45.010Z,553.00
2023-03-29T01:48:44.990Z,541.00
2023-03-29T01:49:45.033Z,559.00
2023-03-29T01:50:45.060Z,556.00
2023-03-29T01:51:45.089Z,576.00
2023-03-29T01:52:45.130Z,601.00
2023-03-29T01:53:45.145Z,603.00
2023-03-29T01:54:45.198Z,611.00
2023-03-29T01:55:45.198Z,612.00
2023-03-29T01:56:45.261Z,619.00
2023-03-29T01:57:45.262Z,605.00
2023-03-29T01:58:45.288Z,623.00
2023-03-29T01:59:45.317Z,625.00
2023-03-29T02:00:45.352Z,632.00
2023-03-29T02:01:45.391Z,626.00
2023-03-29T02:02:45.508Z,629.00
2023-03-29T02:03:45.486Z,635.00
2023-03-29T02:04:45.462Z,622.00
2023-03-29T02:05:45.477Z,616.00
2023-03-29T02:06:45.601Z,595.00
2023-03-29T02:07:45.522Z,625.00
2023-03-29T02:08:45.573Z,628.00
2023-03-29T02:09:45.605Z,616.00
2023-03-29T02:10:45.639Z,589.00
2023-03-29T02:11:45.652Z,593.00
2023-03-29T02:12:45.997Z,610.00
2023-03-29T02:13:45.687Z,609.00
2023-03-29T02:14:45.716Z,606.00
2023-03-29T02:15:45.839Z,588.00
2023-03-29T02:16:45.779Z,567.00
2023-03-29T02:17:45.827Z,550.00
2023-03-29T02:18:45.827Z,584.00
2023-03-29T02:19:45.856Z,573.00
2023-03-29T02:20:45.910Z,597.00
2023-03-29T02:21:45.910Z,589.00
2023-03-29T02:22:45.941Z,583.00
2023-03-29T02:23:45.988Z,611.00
2023-03-29T02:24:46.017Z,600.00
2023-03-29T02:25:46.032Z,581.00
2023-03-29T02:26:46.051Z,590.00
2023-03-29T02:27:46.106Z,606.00
2023-03-29T02:28:46.114Z,618.00
2023-03-29T02:29:46.147Z,608.00
2023-03-29T02:30:46.206Z,608.00
2023-03-29T02:31:46.215Z,594.00
2023-03-29T02:32:46.224Z,579.00
2023-03-29T02:33:46.258Z,568.00
2023-03-29T02:34:46.281Z,607.00
2023-03-29T02:35:46.333Z,602.00
2023-03-29T02:36:46.330Z,588.00
2023-03-29T02:37:46.366Z,597.00
2023-03-29T02:38:46.383Z,620.00
2023-03-29T02:39:46.409Z,570.00
2023-03-29T02:40:46.435Z,572.00
2023-03-29T02:41:46.475Z,563.00
2023-03-29T02:42:46.497Z,577.00
2023-03-29T02:43:46.543Z,604.00
2023-03-29T02:44:46.556Z,606.00
2023-03-29T02:45:46.570Z,597.00
2023-03-29T02:46:46.598Z,566.00
2023-03-29T02:47:46.699Z,555.00
2023-03-29T02:48:46.661Z,567.00
2023-03-29T02:49:46.704Z,590.00
2023-03-29T02:50:46.707Z,607.00
2023-03-29T02:51:46.743Z,606.00
2023-03-29T02:52:46.752Z,595.00
2023-03-29T02:53:46.787Z,592.00
2023-03-29T02:54:46.831Z,614.00
2023-03-29T02:55:46.873Z,617.00
2023-03-29T02:56:46.892Z,628.00
2023-03-29T02:57:46.922Z,615.00
2023-03-29T02:58:46.939Z,618.00
2023-03-29T02:59:46.967Z,590.00
2023-03-29T03:00:46.985Z,607.00
2023-03-29T03:01:47.052Z,606.00
2023-03-29T03:02:47.107Z,596.00
2023-03-29T03:03:47.135Z,589.00
2023-03-29T03:04:47.094Z,618.00
2023-03-29T03:05:47.130Z,620.00
2023-03-29T03:06:47.159Z,622.00
2023-03-29T03:07:47.175Z,614.00
2023-03-29T03:08:47.207Z,616.00
2023-03-29T03:09:47.243Z,630.00
2023-03-29T03:10:47.267Z,615.00
2023-03-29T03:11:47.284Z,624.00
2023-03-29T03:12:47.301Z,631.00
2023-03-29T03:13:47.353Z,625.00
2023-03-29T03:14:47.367Z,630.00
2023-03-29T03:15:47.388Z,634.00
2023-03-29T03:16:47.483Z,618.00
2023-03-29T03:17:47.485Z,636.00
2023-03-29T03:18:47.512Z,628.00
2023-03-29T03:19:47.518Z,632.00
2023-03-29T03:20:47.530Z,627.00
2023-03-29T03:21:47.565Z,637.00
2023-03-29T03:22:47.571Z,622.00
2023-03-29T03:23:47.606Z,616.00
2023-03-29T03:24:47.641Z,610.00
2023-03-29T03:25:47.661Z,619.00
2023-03-29T03:26:47.709Z,617.00
2023-03-29T03:27:47.726Z,622.00
2023-03-29T03:28:47.752Z,600.00
2023-03-29T03:29:47.805Z,603.00
2023-03-29T03:30:47.817Z,613.00
2023-03-29T03:31:47.874Z,589.00
2023-03-29T03:32:47.935Z,591.00
2023-03-29T03:33:47.899Z,610.00
2023-03-29T03:34:47.953Z,578.00
2023-03-29T03:35:48.031Z,562.00
2023-03-29T03:36:47.988Z,552.00
2023-03-29T03:37:48.008Z,593.00
2023-03-29T03:38:48.050Z,606.00
2023-03-29T03:39:48.086Z,612.00
2023-03-29T03:40:48.120Z,626.00
2023-03-29T03:41:48.148Z,645.00
2023-03-29T03:42:48.172Z,614.00
2023-03-29T03:43:48.215Z,627.00
2023-03-29T03:44:48.223Z,611.00
2023-03-29T03:45:48.294Z,630.00
2023-03-29T03:46:48.292Z,607.00
2023-03-29T03:47:48.371Z,620.00
2023-03-29T03:48:48.341Z,613.00
2023-03-29T03:49:48.389Z,610.00
2023-03-29T03:50:48.408Z,609.00
2023-03-29T03:51:49.831Z,596.00
2023-03-29T03:52:48.557Z,613.00
2023-03-29T03:53:48.576Z,610.00
2023-03-29T03:54:48.617Z,609.00
2023-03-29T03:55:48.631Z,590.00
2023-03-29T03:56:48.724Z,599.00
2023-03-29T03:57:48.692Z,605.00
2023-03-29T03:58:48.724Z,629.00
2023-03-29T03:59:48.746Z,639.00
2023-03-29T04:00:48.766Z,628.00
2023-03-29T04:01:48.806Z,628.00
2023-03-29T04:02:48.931Z,616.00
2023-03-29T04:03:48.983Z,638.00
2023-03-29T04:04:48.857Z,648.00
2023-03-29T04:05:48.945Z,611.00
2023-03-29T04:06:48.909Z,632.00
2023-03-29T04:07:48.947Z,622.00
2023-03-29T04:08:48.980Z,635.00
2023-03-29T04:09:48.987Z,644.00
2023-03-29T04:10:49.006Z,642.00
2023-03-29T04:11:49.051Z,642.00
2023-03-29T04:12:49.132Z,617.00
2023-03-29T04:13:49.107Z,635.00
2023-03-29T04:14:49.127Z,636.00
2023-03-29T04:15:49.197Z,611.00
2023-03-29T04:16:49.181Z,629.00
2023-03-29T04:17:49.265Z,601.00
2023-03-29T04:18:49.305Z,572.00
2023-03-29T04:19:49.269Z,597.00
2023-03-29T04:20:49.276Z,589.00
2023-03-29T04:21:49.317Z,580.00
2023-03-29T04:22:49.347Z,582.00
2023-03-29T04:23:49.374Z,624.00
2023-03-29T04:24:49.394Z,631.00
2023-03-29T04:25:49.419Z,633.00
2023-03-29T04:26:49.447Z,615.00
2023-03-29T04:27:49.503Z,581.00
2023-03-29T04:28:49.543Z,583.00
2023-03-29T04:29:49.542Z,597.00
2023-03-29T04:30:49.634Z,617.00
2023-03-29T04:31:49.696Z,623.00
2023-03-29T04:32:49.660Z,620.00
2023-03-29T04:33:49.656Z,611.00
2023-03-29T04:34:49.692Z,584.00
2023-03-29T04:35:49.707Z,583.00
2023-03-29T04:36:49.738Z,575.00
2023-03-29T04:37:49.835Z,568.00
2023-03-29T04:38:49.786Z,568.00
2023-03-29T04:39:49.801Z,591.00
2023-03-29T04:40:49.831Z,608.00
2023-03-29T04:41:49.883Z,603.00
2023-03-29T04:42:49.912Z,606.00
2023-03-29T04:43:49.936Z,577.00
2023-03-29T04:44:50.012Z,595.00
2023-03-29T04:45:49.974Z,619.00
2023-03-29T04:46:50.106Z,624.00
2023-03-29T04:47:50.072Z,631.00
2023-03-29T04:48:50.056Z,640.00
2023-03-29T04:49:50.084Z,631.00
2023-03-29T04:50:50.126Z,630.00
2023-03-29T04:51:50.112Z,627.00
2023-03-29T04:52:50.151Z,633.00
2023-03-29T04:53:50.192Z,620.00
2023-03-29T04:54:50.201Z,628.00
2023-03-29T04:55:50.237Z,627.00
2023-03-29T04:56:50.276Z,630.00
2023-03-29T04:57:50.285Z,621.00
2023-03-29T04:58:50.313Z,634.00
2023-03-29T04:59:50.346Z,635.00
2023-03-29T05:00:50.372Z,635.00
2023-03-29T05:01:50.444Z,634.00
2023-03-29T05:02:50.462Z,630.00
2023-03-29T05:03:50.493Z,629.00
2023-03-29T05:04:50.512Z,635.00
2023-03-29T05:05:50.479Z,629.00
2023-03-29T05:06:50.516Z,632.00
2023-03-29T05:07:50.536Z,626.00
2023-03-29T05:08:50.555Z,629.00
2023-03-29T05:09:50.614Z,643.00
2023-03-29T05:10:50.610Z,635.00
2023-03-29T05:11:50.649Z,641.00
2023-03-29T05:12:50.650Z,629.00
2023-03-29T05:13:50.676Z,626.00
2023-03-29T05:14:50.698Z,636.00
2023-03-29T05:15:50.774Z,626.00
2023-03-29T05:16:50.783Z,634.00
2023-03-29T05:17:50.841Z,638.00
2023-03-29T05:18:50.797Z,626.00
2023-03-29T05:19:50.853Z,634.00
2023-03-29T05:20:50.861Z,634.00
2023-03-29T05:21:50.908Z,637.00
2023-03-29T05:22:50.910Z,645.00
2023-03-29T05:23:50.949Z,646.00
2023-03-29T05:24:50.961Z,651.00
2023-03-29T05:25:51.012Z,650.00
2023-03-29T05:26:51.047Z,643.00
2023-03-29T05:27:51.044Z,622.00
2023-03-29T05:28:51.063Z,548.00
2023-03-29T05:29:51.116Z,552.00
2023-03-29T05:30:51.160Z,547.00
2023-03-29T05:31:51.203Z,548.00
2023-03-29T05:32:51.209Z,570.00
2023-03-29T05:33:51.224Z,586.00
2023-03-29T05:34:51.235Z,581.00
2023-03-29T05:35:51.283Z,580.00
2023-03-29T05:36:51.291Z,615.00
2023-03-29T05:37:51.307Z,633.00
2023-03-29T05:38:51.305Z,650.00
2023-03-29T05:39:51.325Z,656.00
2023-03-29T05:40:51.316Z,657.00
2023-03-29T05:41:51.329Z,736.00
2023-03-29T05:42:51.314Z,791.00
2023-03-29T05:43:51.325Z,841.00
2023-03-29T05:44:53.418Z,860.00
2023-03-29T05:45:51.398Z,867.00
2023-03-29T05:46:51.336Z,893.00
2023-03-29T05:47:51.372Z,926.00
2023-03-29T05:48:51.301Z,932.00
2023-03-29T05:49:51.302Z,965.00
2023-03-29T05:50:51.335Z,977.00
2023-03-29T05:51:51.295Z,987.00
2023-03-29T05:52:51.271Z,996.00
2023-03-29T05:53:51.272Z,990.00
2023-03-29T05:54:51.264Z,984.00
2023-03-29T05:55:51.297Z,1038.00
2023-03-29T05:56:51.257Z,1059.00
2023-03-29T05:57:51.257Z,1063.00
2023-03-29T05:58:53.019Z,1082.00
2023-03-29T05:59:51.232Z,1084.00
2023-03-29T06:00:51.278Z,1089.00
2023-03-29T06:01:51.226Z,1100.00
2023-03-29T06:02:51.360Z,1103.00
2023-03-29T06:03:51.292Z,1129.00
2023-03-29T06:04:51.233Z,1146.00
2023-03-29T06:05:51.186Z,1174.00
2023-03-29T06:06:51.189Z,1168.00
2023-03-29T06:07:51.166Z,1192.00
2023-03-29T06:08:51.171Z,1190.00
2023-03-29T06:09:51.153Z,1205.00
2023-03-29T06:10:51.144Z,1215.00
2023-03-29T06:11:51.151Z,1210.00
2023-03-29T06:12:51.137Z,1381.00
2023-03-29T06:13:51.127Z,1525.00
2023-03-29T06:14:51.111Z,1337.00
2023-03-29T06:15:51.103Z,1307.00
2023-03-29T06:16:51.141Z,1304.00
2023-03-29T06:17:51.177Z,1305.00
2023-03-29T06:18:51.075Z,1301.00
2023-03-29T06:19:51.084Z,1293.00
2023-03-29T06:20:51.086Z,1279.00
2023-03-29T06:21:51.056Z,1285.00
2023-03-29T06:22:51.070Z,1295.00
2023-03-29T06:23:51.046Z,1275.00
2023-03-29T06:24:51.034Z,1300.00
2023-03-29T06:25:51.589Z,1296.00
2023-03-29T06:26:51.038Z,1399.00
2023-03-29T06:27:51.005Z,1412.00
2023-03-29T06:28:52.345Z,1375.00
2023-03-29T06:29:51.002Z,1339.00
2023-03-29T06:30:51.096Z,1330.00
2023-03-29T06:31:51.057Z,1316.00
2023-03-29T06:32:51.065Z,1308.00
2023-03-29T06:33:50.968Z,1295.00
2023-03-29T06:34:51.002Z,1315.00
2023-03-29T06:35:51.011Z,1342.00
2023-03-29T06:36:50.947Z,1308.00
2023-03-29T06:37:50.975Z,1358.00
2023-03-29T06:38:50.961Z,1367.00
2023-03-29T06:39:53.306Z,1384.00
2023-03-29T06:40:50.966Z,1407.00
2023-03-29T06:41:51.000Z,1408.00
2023-03-29T06:42:50.985Z,1414.00
2023-03-29T06:43:50.962Z,1411.00
2023-03-29T06:44:50.966Z,1419.00
2023-03-29T06:45:51.002Z,1430.00
2023-03-29T06:46:52.579Z,1441.00
2023-03-29T06:47:51.561Z,1431.00
2023-03-29T06:48:51.049Z,1445.00
2023-03-29T06:49:51.064Z,1463.00
2023-03-29T06:50:51.092Z,1476.00
2023-03-29T06:51:51.120Z,1487.00
2023-03-29T06:52:51.581Z,1474.00
2023-03-29T06:53:51.212Z,1477.00
2023-03-29T06:54:51.633Z,1520.00
2023-03-29T06:55:51.304Z,1483.00
2023-03-29T06:56:51.383Z,1488.00
2023-03-29T06:57:51.575Z,1486.00
2023-03-29T06:58:51.517Z,1490.00
2023-03-29T06:59:51.589Z,1499.00
2023-03-29T07:00:51.744Z,1504.00
2023-03-29T07:01:51.828Z,1500.00
2023-03-29T07:02:52.086Z,1501.00
2023-03-29T07:03:52.017Z,1491.00
2023-03-29T07:04:51.993Z,1491.00
2023-03-29T07:05:52.175Z,1496.00
2023-03-29T07:06:52.109Z,1503.00
2023-03-29T07:07:52.562Z,1500.00
2023-03-29T07:08:52.252Z,1507.00
2023-03-29T07:09:52.276Z,1511.00
2023-03-29T07:10:52.383Z,1497.00
2023-03-29T07:11:52.410Z,1491.00
2023-03-29T07:12:52.484Z,1479.00
2023-03-29T07:13:52.566Z,1481.00
2023-03-29T07:14:52.593Z,1484.00
2023-03-29T07:15:52.663Z,1477.00
2023-03-29T07:16:52.715Z,1470.00
2023-03-29T07:17:52.829Z,1456.00
2023-03-29T07:18:52.887Z,1465.00
2023-03-29T07:19:52.873Z,1453.00
2023-03-29T07:20:52.937Z,1424.00
2023-03-29T07:21:53.055Z,1422.00
2023-03-29T07:22:53.069Z,1412.00
2023-03-29T07:23:53.113Z,1416.00
2023-03-29T07:24:53.189Z,1422.00
2023-03-29T07:25:53.260Z,1415.00
2023-03-29T07:27:53.546Z,1409.00
2023-03-29T07:28:53.299Z,1389.00
2023-03-29T07:29:53.291Z,1358.00
2023-03-29T07:30:53.287Z,1327.00
2023-03-29T07:31:53.287Z,1352.00
2023-03-29T07:32:53.715Z,1421.00
2023-03-29T07:33:53.354Z,1443.00
2023-03-29T07:34:53.277Z,1454.00
2023-03-29T07:35:53.302Z,1461.00
2023-03-29T07:36:53.275Z,1463.00
2023-03-29T07:37:53.530Z,1463.00
2023-03-29T07:38:55.882Z,1478.00
2023-03-29T07:39:53.239Z,1478.00
2023-03-29T07:40:53.228Z,1477.00
2023-03-29T07:41:53.212Z,1475.00
2023-03-29T07:42:53.217Z,1466.00
2023-03-29T07:43:53.189Z,1460.00
2023-03-29T07:44:53.534Z,1459.00
2023-03-29T07:45:53.259Z,1455.00
2023-03-29T07:46:53.192Z,1455.00
2023-03-29T07:47:53.224Z,1444.00
2023-03-29T07:48:53.165Z,1440.00
2023-03-29T07:49:53.550Z,1447.00
2023-03-29T07:50:53.165Z,1444.00
2023-03-29T07:51:53.149Z,1447.00
2023-03-29T07:52:53.570Z,1470.00
2023-03-29T07:53:53.136Z,1476.00
2023-03-29T07:54:53.545Z,1494.00
2023-03-29T07:55:53.108Z,1517.00
2023-03-29T07:56:53.143Z,1529.00
2023-03-29T07:57:53.113Z,1513.00
2023-03-29T07:58:53.106Z,1513.00
2023-03-29T07:59:53.544Z,1523.00
2023-03-29T08:00:53.133Z,1518.00
2023-03-29T08:01:53.088Z,1509.00
2023-03-29T08:02:53.096Z,1511.00
2023-03-29T08:03:53.135Z,1500.00
2023-03-29T08:04:53.066Z,1508.00
2023-03-29T08:05:53.105Z,1500.00
2023-03-29T08:06:53.049Z,1495.00
2023-03-29T08:07:53.047Z,1475.00
2023-03-29T08:08:53.048Z,1492.00
2023-03-29T08:09:53.019Z,1459.00
2023-03-29T08:10:53.040Z,1462.00
2023-03-29T08:11:53.012Z,1454.00
2023-03-29T08:12:53.006Z,1424.00
2023-03-29T08:13:52.991Z,1422.00
2023-03-29T08:14:53.054Z,1426.00
2023-03-29T08:15:52.992Z,1425.00
2023-03-29T08:16:53.046Z,1430.00
2023-03-29T08:17:53.018Z,1427.00
2023-03-29T08:18:52.993Z,1424.00
2023-03-29T08:19:53.047Z,1410.00
2023-03-29T08:20:52.948Z,1391.00
2023-03-29T08:21:52.944Z,1322.00
2023-03-29T08:22:52.950Z,1320.00
2023-03-29T08:23:52.954Z,1288.00
2023-03-29T08:24:53.040Z,1282.00
2023-03-29T08:25:52.933Z,1326.00
2023-03-29T08:26:52.932Z,1393.00
2023-03-29T08:27:53.042Z,1353.00
2023-03-29T08:28:52.894Z,1379.00
2023-03-29T08:29:52.930Z,1391.00
2023-03-29T08:30:52.955Z,1404.00
2023-03-29T08:31:52.888Z,1403.00
2023-03-29T08:32:54.539Z,1098.00
2023-03-29T08:33:52.980Z,573.00
2023-03-29T08:34:53.012Z,614.00
2023-03-29T08:35:53.030Z,646.00
2023-03-29T08:36:53.002Z,688.00
2023-03-29T08:37:53.045Z,839.00
2023-03-29T08:38:53.076Z,909.00
2023-03-29T08:39:53.116Z,935.00
2023-03-29T08:40:53.181Z,974.00
2023-03-29T08:41:53.227Z,1013.00
2023-03-29T08:42:53.558Z,1057.00
2023-03-29T08:43:53.352Z,1077.00
2023-03-29T08:44:53.318Z,1119.00
2023-03-29T08:45:53.400Z,1150.00
2023-03-29T08:46:53.357Z,1152.00
2023-03-29T08:47:53.490Z,1164.00
2023-03-29T08:48:53.330Z,1178.00
2023-03-29T08:49:53.362Z,1197.00
2023-03-29T08:50:53.443Z,1160.00
2023-03-29T08:51:53.522Z,1182.00
2023-03-29T08:52:53.604Z,1201.00
2023-03-29T08:53:53.705Z,1214.00
2023-03-29T08:54:53.729Z,1218.00
2023-03-29T08:55:53.777Z,1227.00
2023-03-29T08:56:53.864Z,1225.00
2023-03-29T08:57:53.889Z,1234.00
2023-03-29T08:58:53.959Z,1231.00
2023-03-29T08:59:53.994Z,1234.00
2023-03-29T09:00:54.040Z,1217.00
2023-03-29T09:01:54.143Z,1234.00
2023-03-29T09:02:54.238Z,1219.00
2023-03-29T09:03:54.260Z,1212.00
2023-03-29T09:04:54.198Z,1217.00
2023-03-29T09:05:54.233Z,1221.00
2023-03-29T09:06:54.274Z,1225.00
2023-03-29T09:07:54.291Z,1235.00
2023-03-29T09:08:54.571Z,1233.00
2023-03-29T09:09:54.373Z,1234.00
2023-03-29T09:10:54.381Z,1214.00
2023-03-29T09:11:54.419Z,1222.00
2023-03-29T09:12:54.443Z,1223.00
2023-03-29T09:13:54.458Z,1211.00
2023-03-29T09:14:54.481Z,1210.00
2023-03-29T09:15:54.544Z,1215.00
2023-03-29T09:16:54.508Z,1227.00
2023-03-29T09:17:54.592Z,1217.00
2023-03-29T09:18:54.562Z,1215.00
2023-03-29T09:19:54.571Z,1204.00
2023-03-29T09:20:54.606Z,1207.00
2023-03-29T09:21:54.604Z,1199.00
2023-03-29T09:22:55.067Z,1207.00
2023-03-29T09:23:55.726Z,1202.00
2023-03-29T09:24:54.672Z,1220.00
2023-03-29T09:25:54.673Z,1212.00
2023-03-29T09:26:54.712Z,1211.00
2023-03-29T09:27:55.067Z,1235.00
2023-03-29T09:28:54.688Z,1191.00
2023-03-29T09:29:54.709Z,1126.00
2023-03-29T09:30:54.716Z,1187.00
2023-03-29T09:31:54.791Z,1224.00
2023-03-29T09:32:55.153Z,1235.00
2023-03-29T09:33:55.045Z,1238.00
2023-03-29T09:34:54.781Z,1209.00
2023-03-29T09:35:54.837Z,1196.00
2023-03-29T09:36:54.841Z,1199.00
2023-03-29T09:37:54.877Z,1191.00
2023-03-29T09:38:54.868Z,1202.00
2023-03-29T09:39:54.901Z,1194.00
2023-03-29T09:40:54.925Z,1205.00
2023-03-29T09:41:54.946Z,1212.00
2023-03-29T09:42:55.009Z,1194.00
2023-03-29T09:43:55.030Z,1168.00
2023-03-29T09:44:55.041Z,1131.00
2023-03-29T09:45:55.085Z,1174.00
2023-03-29T09:46:55.119Z,1142.00
2023-03-29T09:47:55.242Z,1085.00
2023-03-29T09:48:55.568Z,1052.00
2023-03-29T09:49:55.251Z,1053.00
2023-03-29T09:50:55.265Z,1041.00
2023-03-29T09:51:55.316Z,1043.00
2023-03-29T09:52:55.357Z,1026.00
2023-03-29T09:53:55.400Z,1027.00
2023-03-29T09:54:55.440Z,1016.00
2023-03-29T09:55:55.489Z,997.00
2023-03-29T09:56:55.561Z,971.00
2023-03-29T09:57:55.551Z,983.00
2023-03-29T09:58:55.604Z,947.00
2023-03-29T09:59:55.653Z,952.00
2023-03-29T10:00:55.718Z,952.00
2023-03-29T10:01:55.788Z,957.00
2023-03-29T10:02:55.822Z,949.00
2023-03-29T10:03:56.111Z,942.00
2023-03-29T10:04:56.071Z,914.00
2023-03-29T10:05:55.924Z,930.00
2023-03-29T10:06:55.967Z,934.00
2023-03-29T10:07:56.015Z,903.00
2023-03-29T10:08:56.054Z,919.00
2023-03-29T10:09:56.149Z,892.00
2023-03-29T10:10:56.294Z,891.00
2023-03-29T10:11:56.186Z,885.00
2023-03-29T10:12:56.233Z,889.00
2023-03-29T10:13:56.295Z,892.00
2023-03-29T10:14:56.351Z,893.00
2023-03-29T10:15:56.382Z,861.00
2023-03-29T10:16:56.580Z,854.00
2023-03-29T10:17:56.520Z,868.00
2023-03-29T10:18:56.518Z,845.00
2023-03-29T10:19:56.571Z,836.00
2023-03-29T10:20:56.615Z,755.00
2023-03-29T10:21:56.642Z,694.00
2023-03-29T10:22:56.800Z,753.00
2023-03-29T10:23:56.831Z,763.00
2023-03-29T10:24:57.060Z,751.00
2023-03-29T10:25:56.988Z,615.00
2023-03-29T10:26:57.011Z,400.00
2023-03-29T10:27:56.987Z,400.00
2023-03-29T10:28:57.004Z,400.00
2023-03-29T10:29:57.085Z,400.00
2023-03-29T10:30:57.065Z,403.00
2023-03-29T10:31:57.165Z,400.00
2023-03-29T10:32:57.104Z,409.00
2023-03-29T10:33:57.144Z,407.00
2023-03-29T10:34:57.193Z,421.00
2023-03-29T10:35:57.243Z,453.00
2023-03-29T10:36:57.225Z,497.00
2023-03-29T10:37:57.243Z,538.00
2023-03-29T10:38:57.246Z,584.00
2023-03-29T10:39:57.255Z,600.00
2023-03-29T10:40:57.307Z,643.00
2023-03-29T10:41:57.347Z,667.00
2023-03-29T10:42:57.366Z,747.00
2023-03-29T10:43:57.378Z,733.00
2023-03-29T10:44:57.390Z,816.00
2023-03-29T10:45:57.459Z,835.00
2023-03-29T10:46:57.459Z,920.00
2023-03-29T10:47:57.547Z,951.00
2023-03-29T10:48:57.566Z,953.00
2023-03-29T10:49:57.624Z,979.00
2023-03-29T10:50:57.660Z,1093.00
2023-03-29T10:51:57.710Z,1098.00
2023-03-29T10:52:57.780Z,1113.00
2023-03-29T10:53:57.802Z,997.00
2023-03-29T10:54:57.830Z,889.00
2023-03-29T10:55:57.867Z,883.00
2023-03-29T10:56:57.997Z,885.00
2023-03-29T10:57:57.976Z,970.00
2023-03-29T10:58:58.015Z,972.00
2023-03-29T10:59:58.587Z,1115.00
2023-03-29T11:00:58.140Z,1239.00
2023-03-29T11:01:58.272Z,1343.00
2023-03-29T11:02:58.304Z,1416.00
2023-03-29T11:03:58.304Z,1484.00
2023-03-29T11:04:58.640Z,1494.00
2023-03-29T11:05:58.291Z,1603.00
2023-03-29T11:06:58.324Z,1671.00
2023-03-29T11:07:58.324Z,1718.00
2023-03-29T11:08:58.341Z,1808.00
2023-03-29T11:09:58.320Z,1924.00
2023-03-29T11:10:58.338Z,1906.00
2023-03-29T11:12:08.601Z,1968.00
2023-03-29T11:12:59.418Z,1970.00
2023-03-29T11:13:59.990Z,1899.00
2023-03-29T11:14:58.567Z,1576.00
2023-03-29T11:15:58.660Z,1697.00
2023-03-29T11:16:58.394Z,1738.00
2023-03-29T11:17:58.414Z,1681.00
2023-03-29T11:18:58.393Z,1639.00
2023-03-29T11:19:58.373Z,1707.00
2023-03-29T11:20:58.365Z,1736.00
2023-03-29T11:21:58.338Z,1701.00
2023-03-29T11:22:58.332Z,1380.00
2023-03-29T11:23:58.358Z,1284.00
2023-03-29T11:24:58.372Z,992.00
2023-03-29T11:25:58.393Z,877.00
2023-03-29T11:26:58.409Z,923.00
2023-03-29T11:27:58.421Z,926.00
2023-03-29T11:28:58.434Z,1172.00
2023-03-29T11:29:58.469Z,1067.00
2023-03-29T11:30:58.593Z,1193.00
2023-03-29T11:31:58.563Z,1222.00
2023-03-29T11:32:58.603Z,1220.00
2023-03-29T11:33:58.599Z,1283.00
2023-03-29T11:34:58.662Z,1323.00
2023-03-29T11:35:58.674Z,1303.00
2023-03-29T11:36:58.668Z,1349.00
2023-03-29T11:37:58.706Z,1320.00
2023-03-29T11:38:58.796Z,1386.00
2023-03-29T11:39:58.826Z,1411.00
2023-03-29T11:40:58.868Z,1399.00
2023-03-29T11:41:58.927Z,1436.00
2023-03-29T11:42:58.952Z,1504.00
2023-03-29T11:43:58.988Z,1560.00
2023-03-29T11:44:59.042Z,1550.00
2023-03-29T11:45:59.050Z,1598.00
2023-03-29T11:46:59.091Z,1581.00
2023-03-29T11:47:59.085Z,1677.00
2023-03-29T11:48:59.080Z,1616.00
2023-03-29T11:49:59.083Z,1711.00
2023-03-29T11:50:59.083Z,1730.00
2023-03-29T11:51:59.087Z,1705.00
2023-03-29T11:52:59.055Z,1751.00
2023-03-29T11:53:59.073Z,1793.00
2023-03-29T11:54:59.087Z,1792.00
2023-03-29T11:55:59.571Z,1827.00
2023-03-29T11:56:59.174Z,1791.00
2023-03-29T11:57:59.577Z,1778.00
2023-03-29T11:58:59.144Z,1742.00
2023-03-29T11:59:59.151Z,1834.00
2023-03-29T12:00:59.193Z,1759.00
2023-03-29T12:01:59.184Z,1636.00
2023-03-29T12:02:59.688Z,1652.00
2023-03-29T12:03:59.364Z,1665.00
2023-03-29T12:04:59.175Z,1717.00
2023-03-29T12:05:59.141Z,1820.00
2023-03-29T12:06:59.211Z,1843.00
2023-03-29T12:07:59.618Z,1938.00
2023-03-29T12:08:59.320Z,2056.00
2023-03-29T12:09:59.367Z,2107.00
2023-03-29T12:10:59.424Z,2191.00
2023-03-29T12:11:59.485Z,2212.00
2023-03-29T12:12:59.589Z,2242.00
2023-03-29T12:13:59.570Z,2270.00
2023-03-29T12:14:59.624Z,2271.00
2023-03-29T12:15:59.660Z,2292.00
2023-03-29T12:16:59.721Z,2305.00
2023-03-29T12:17:59.774Z,2308.00
2023-03-29T12:18:59.771Z,2349.00
2023-03-29T12:19:59.802Z,2381.00